CPA488 VHHH-RCTP
Flight info
| Callsign | CPA488 |
|---|---|
| Flight time | 1h 7m |
| Altitude | 41000 |
| Route | DALOL V631 ENVAR M750 EXTRA/N0478F290 M750 TONGA TONGA1A |
| Aircraft | A359/H-SDE2E3GHIJ3J4J5LM1ORWXY/LB1D1 |
Departure
| Time | 2026-05-05 02:34 |
|---|---|
| Airport | Hong Kong International Airport (VHHH) |
Arrival
| Time | 2026-05-05 03:41 |
|---|---|
| Airport | Taiwan Taoyuan International Airport (RCTP) |
| Time | Latitude | Longitude | Altitude | Speed | Heading |
|---|---|---|---|---|---|
| 2026-05-05 01:48 | 22.31816 | 113.93255 | 42 ft | 0 kts | 74° |
| 2026-05-05 02:20 | 22.31815 | 113.93254 | 43 ft | 2 kts | 74° |
| 2026-05-05 02:20 | 22.31808 | 113.93227 | 42 ft | 4 kts | 70° |
| 2026-05-05 02:20 | 22.31798 | 113.93200 | 40 ft | 4 kts | 70° |
| 2026-05-05 02:21 | 22.31791 | 113.93177 | 40 ft | 4 kts | 54° |
| 2026-05-05 02:21 | 22.31778 | 113.93164 | 38 ft | 4 kts | 12° |
| 2026-05-05 02:21 | 22.31753 | 113.93163 | 41 ft | 4 kts | 348° |
| 2026-05-05 02:21 | 22.31733 | 113.93169 | 42 ft | 0 kts | 341° |
| 2026-05-05 02:25 | 22.31743 | 113.93165 | 43 ft | 7 kts | 341° |
| 2026-05-05 02:25 | 22.31839 | 113.93126 | 43 ft | 19 kts | 331° |
| 2026-05-05 02:25 | 22.31848 | 113.92996 | 43 ft | 21 kts | 252° |
| 2026-05-05 02:25 | 22.31886 | 113.92853 | 43 ft | 21 kts | 278° |
| 2026-05-05 02:26 | 22.31846 | 113.92691 | 43 ft | 25 kts | 251° |
| 2026-05-05 02:26 | 22.31784 | 113.92503 | 43 ft | 25 kts | 251° |
| 2026-05-05 02:26 | 22.31725 | 113.92322 | 43 ft | 23 kts | 250° |
| 2026-05-05 02:26 | 22.31670 | 113.92152 | 43 ft | 26 kts | 250° |
| 2026-05-05 02:27 | 22.31610 | 113.91966 | 43 ft | 25 kts | 251° |
| 2026-05-05 02:27 | 22.31549 | 113.91775 | 43 ft | 29 kts | 251° |
| 2026-05-05 02:27 | 22.31481 | 113.91559 | 44 ft | 32 kts | 251° |
| 2026-05-05 02:27 | 22.31422 | 113.91376 | 44 ft | 6 kts | 250° |
| 2026-05-05 02:28 | 22.31400 | 113.91312 | 44 ft | 12 kts | 250° |
| 2026-05-05 02:28 | 22.31367 | 113.91211 | 44 ft | 17 kts | 250° |
| 2026-05-05 02:28 | 22.31323 | 113.91072 | 44 ft | 22 kts | 251° |
| 2026-05-05 02:28 | 22.31267 | 113.90890 | 44 ft | 28 kts | 251° |
| 2026-05-05 02:29 | 22.31195 | 113.90682 | 43 ft | 32 kts | 250° |
| 2026-05-05 02:29 | 22.31118 | 113.90447 | 43 ft | 35 kts | 252° |
| 2026-05-05 02:29 | 22.31041 | 113.90200 | 43 ft | 35 kts | 250° |
| 2026-05-05 02:29 | 22.30977 | 113.90003 | 43 ft | 12 kts | 251° |
| 2026-05-05 02:30 | 22.30942 | 113.89895 | 43 ft | 18 kts | 251° |
| 2026-05-05 02:30 | 22.30953 | 113.89806 | 42 ft | 1 kts | 320° |
| 2026-05-05 02:30 | 22.30967 | 113.89800 | 43 ft | 0 kts | 339° |
| 2026-05-05 02:31 | 22.30981 | 113.89794 | 43 ft | 5 kts | 339° |
| 2026-05-05 02:31 | 22.31029 | 113.89774 | 43 ft | 10 kts | 340° |
| 2026-05-05 02:31 | 22.31093 | 113.89804 | 43 ft | 12 kts | 55° |
| 2026-05-05 02:32 | 22.31110 | 113.89849 | 43 ft | 0 kts | 69° |
| 2026-05-05 02:33 | 22.31159 | 113.89996 | 43 ft | 63 kts | 71° |
| 2026-05-05 02:33 | 22.31402 | 113.90746 | 44 ft | 145 kts | 70° |
| 2026-05-05 02:33 | 22.31803 | 113.91962 | 374 ft | 189 kts | 70° |
| 2026-05-05 02:34 | 22.32278 | 113.93341 | 1296 ft | 199 kts | 71° |
| 2026-05-05 02:34 | 22.32766 | 113.94786 | 2204 ft | 214 kts | 74° |
| 2026-05-05 02:34 | 22.33236 | 113.96349 | 3165 ft | 224 kts | 75° |
| 2026-05-05 02:34 | 22.33587 | 113.98047 | 4023 ft | 236 kts | 81° |
| 2026-05-05 02:35 | 22.33822 | 113.99824 | 4969 ft | 243 kts | 86° |
| 2026-05-05 02:35 | 22.33671 | 114.01649 | 5920 ft | 249 kts | 107° |
| 2026-05-05 02:35 | 22.32915 | 114.03316 | 6953 ft | 249 kts | 129° |
| 2026-05-05 02:35 | 22.31654 | 114.04580 | 8070 ft | 247 kts | 149° |
| 2026-05-05 02:36 | 22.30198 | 114.05552 | 9230 ft | 248 kts | 153° |
| 2026-05-05 02:36 | 22.28708 | 114.06488 | 10326 ft | 251 kts | 153° |
| 2026-05-05 02:36 | 22.27183 | 114.07456 | 11319 ft | 256 kts | 153° |
| 2026-05-05 02:36 | 22.25587 | 114.08375 | 12312 ft | 260 kts | 162° |
| 2026-05-05 02:37 | 22.23843 | 114.08730 | 13317 ft | 260 kts | 181° |
| 2026-05-05 02:37 | 22.21948 | 114.08736 | 13934 ft | 283 kts | 184° |
| 2026-05-05 02:37 | 22.19910 | 114.08686 | 14328 ft | 308 kts | 184° |
| 2026-05-05 02:37 | 22.17664 | 114.08934 | 14735 ft | 338 kts | 166° |
| 2026-05-05 02:38 | 22.15532 | 114.10179 | 15295 ft | 366 kts | 142° |
| 2026-05-05 02:38 | 22.13944 | 114.12366 | 16185 ft | 375 kts | 121° |
| 2026-05-05 02:38 | 22.12805 | 114.14915 | 16919 ft | 385 kts | 117° |
| 2026-05-05 02:38 | 22.11653 | 114.17594 | 17660 ft | 393 kts | 118° |
| 2026-05-05 02:39 | 22.10466 | 114.20241 | 18475 ft | 401 kts | 118° |
| 2026-05-05 02:39 | 22.09208 | 114.22972 | 19208 ft | 412 kts | 119° |
| 2026-05-05 02:39 | 22.07760 | 114.25665 | 19930 ft | 414 kts | 130° |
| 2026-05-05 02:39 | 22.05720 | 114.27839 | 20716 ft | 410 kts | 146° |
| 2026-05-05 02:40 | 22.03447 | 114.29660 | 21351 ft | 416 kts | 149° |
| 2026-05-05 02:40 | 22.01057 | 114.31507 | 22032 ft | 422 kts | 149° |
| 2026-05-05 02:40 | 21.98668 | 114.33363 | 22711 ft | 428 kts | 149° |
| 2026-05-05 02:40 | 21.96252 | 114.35252 | 23385 ft | 434 kts | 149° |
| 2026-05-05 02:41 | 21.93789 | 114.37190 | 23989 ft | 440 kts | 149° |
| 2026-05-05 02:41 | 21.91293 | 114.39151 | 24608 ft | 444 kts | 149° |
| 2026-05-05 02:41 | 21.88786 | 114.41153 | 25396 ft | 449 kts | 147° |
| 2026-05-05 02:41 | 21.86503 | 114.43445 | 26272 ft | 458 kts | 136° |
| 2026-05-05 02:42 | 21.84620 | 114.46293 | 26884 ft | 474 kts | 122° |
| 2026-05-05 02:42 | 21.83359 | 114.49590 | 27577 ft | 484 kts | 109° |
| 2026-05-05 02:42 | 21.82438 | 114.53100 | 28235 ft | 490 kts | 107° |
| 2026-05-05 02:42 | 21.81541 | 114.56693 | 28847 ft | 495 kts | 107° |
| 2026-05-05 02:43 | 21.80645 | 114.60245 | 29439 ft | 499 kts | 108° |
| 2026-05-05 02:43 | 21.79714 | 114.63892 | 30032 ft | 504 kts | 108° |
| 2026-05-05 02:43 | 21.78782 | 114.67514 | 30523 ft | 508 kts | 108° |
| 2026-05-05 02:43 | 21.77824 | 114.71224 | 31027 ft | 512 kts | 108° |
| 2026-05-05 02:44 | 21.76860 | 114.74946 | 31529 ft | 517 kts | 108° |
| 2026-05-05 02:44 | 21.75902 | 114.78637 | 32007 ft | 520 kts | 108° |
| 2026-05-05 02:44 | 21.74947 | 114.82409 | 32472 ft | 525 kts | 105° |
| 2026-05-05 02:44 | 21.74387 | 114.86283 | 32936 ft | 530 kts | 94° |
| 2026-05-05 02:45 | 21.74239 | 114.90281 | 33408 ft | 534 kts | 91° |
| 2026-05-05 02:45 | 21.74215 | 114.94305 | 33863 ft | 537 kts | 90° |
| 2026-05-05 02:45 | 21.74246 | 114.98324 | 34263 ft | 541 kts | 89° |
| 2026-05-05 02:45 | 21.74290 | 115.02359 | 34656 ft | 543 kts | 89° |
| 2026-05-05 02:46 | 21.74325 | 115.06429 | 35059 ft | 545 kts | 89° |
| 2026-05-05 02:46 | 21.74347 | 115.10503 | 35470 ft | 546 kts | 90° |
| 2026-05-05 02:46 | 21.74355 | 115.14594 | 36040 ft | 543 kts | 90° |
| 2026-05-05 02:46 | 21.74354 | 115.18674 | 36589 ft | 541 kts | 90° |
| 2026-05-05 02:47 | 21.74349 | 115.22686 | 37119 ft | 539 kts | 90° |
| 2026-05-05 02:47 | 21.74344 | 115.26749 | 37658 ft | 537 kts | 90° |
| 2026-05-05 02:47 | 21.74335 | 115.30742 | 38192 ft | 535 kts | 90° |
| 2026-05-05 02:47 | 21.74323 | 115.34709 | 38715 ft | 533 kts | 90° |
| 2026-05-05 02:48 | 21.74310 | 115.38726 | 39131 ft | 532 kts | 90° |
| 2026-05-05 02:48 | 21.74298 | 115.42677 | 39536 ft | 530 kts | 90° |
| 2026-05-05 02:48 | 21.74286 | 115.46652 | 39928 ft | 529 kts | 90° |
| 2026-05-05 02:48 | 21.74273 | 115.50585 | 40313 ft | 528 kts | 90° |
| 2026-05-05 02:49 | 21.74259 | 115.54551 | 40702 ft | 526 kts | 90° |
| 2026-05-05 02:49 | 21.74245 | 115.58453 | 40978 ft | 527 kts | 90° |
| 2026-05-05 02:49 | 21.74227 | 115.62438 | 41035 ft | 530 kts | 90° |
| 2026-05-05 02:50 | 21.74197 | 115.70359 | 41034 ft | 532 kts | 90° |
| 2026-05-05 02:50 | 21.74165 | 115.78337 | 41031 ft | 532 kts | 90° |
| 2026-05-05 02:51 | 21.74128 | 115.86281 | 41033 ft | 532 kts | 90° |
| 2026-05-05 02:51 | 21.74086 | 115.94224 | 41032 ft | 532 kts | 90° |
| 2026-05-05 02:52 | 21.74048 | 116.00835 | 41031 ft | 532 kts | 90° |
| 2026-05-05 02:52 | 21.73998 | 116.08836 | 41029 ft | 532 kts | 90° |
| 2026-05-05 02:53 | 21.73946 | 116.16746 | 41033 ft | 532 kts | 90° |
| 2026-05-05 02:53 | 21.73889 | 116.24721 | 41035 ft | 532 kts | 90° |
| 2026-05-05 02:54 | 21.73828 | 116.32694 | 41036 ft | 532 kts | 90° |
| 2026-05-05 02:54 | 21.73764 | 116.40641 | 41034 ft | 532 kts | 90° |
| 2026-05-05 02:55 | 21.73695 | 116.48626 | 41035 ft | 532 kts | 90° |
| 2026-05-05 02:55 | 21.73624 | 116.56529 | 41034 ft | 532 kts | 90° |
| 2026-05-05 02:56 | 21.73548 | 116.64465 | 41031 ft | 532 kts | 90° |
| 2026-05-05 02:56 | 21.73469 | 116.72446 | 41032 ft | 532 kts | 90° |
| 2026-05-05 02:57 | 21.74270 | 116.80329 | 41032 ft | 530 kts | 73° |
| 2026-05-05 02:57 | 21.76679 | 116.87791 | 41032 ft | 528 kts | 67° |
| 2026-05-05 02:58 | 21.79381 | 116.95171 | 41028 ft | 529 kts | 66° |
| 2026-05-05 02:58 | 21.82099 | 117.02538 | 41030 ft | 529 kts | 66° |
| 2026-05-05 02:59 | 21.84785 | 117.09921 | 41033 ft | 529 kts | 67° |
| 2026-05-05 02:59 | 21.87452 | 117.17314 | 41036 ft | 530 kts | 67° |
| 2026-05-05 03:00 | 21.90100 | 117.24682 | 41033 ft | 530 kts | 67° |
| 2026-05-05 03:00 | 21.92757 | 117.32086 | 41031 ft | 530 kts | 67° |
| 2026-05-05 03:01 | 21.95424 | 117.39522 | 41036 ft | 530 kts | 67° |
| 2026-05-05 03:01 | 21.98074 | 117.46922 | 41037 ft | 531 kts | 67° |
| 2026-05-05 03:02 | 22.01433 | 117.53973 | 41039 ft | 527 kts | 57° |
| 2026-05-05 03:02 | 22.05221 | 117.60739 | 41026 ft | 527 kts | 56° |
| 2026-05-05 03:03 | 22.09082 | 117.67485 | 41042 ft | 528 kts | 56° |
| 2026-05-05 03:03 | 22.12919 | 117.74214 | 41044 ft | 528 kts | 56° |
| 2026-05-05 03:04 | 22.16778 | 117.81021 | 41046 ft | 529 kts | 56° |
| 2026-05-05 03:04 | 22.20595 | 117.87775 | 41045 ft | 529 kts | 56° |
| 2026-05-05 03:05 | 22.24428 | 117.94566 | 41048 ft | 529 kts | 56° |
| 2026-05-05 03:05 | 22.28262 | 118.01365 | 41035 ft | 529 kts | 56° |
| 2026-05-05 03:06 | 22.32157 | 118.08091 | 41035 ft | 529 kts | 54° |
| 2026-05-05 03:06 | 22.36090 | 118.14783 | 41036 ft | 529 kts | 54° |
| 2026-05-05 03:07 | 22.40034 | 118.21523 | 41041 ft | 530 kts | 55° |
| 2026-05-05 03:07 | 22.43934 | 118.28326 | 41036 ft | 530 kts | 56° |
| 2026-05-05 03:08 | 22.47760 | 118.35117 | 41039 ft | 531 kts | 56° |
| 2026-05-05 03:08 | 22.51608 | 118.41948 | 41036 ft | 531 kts | 56° |
| 2026-05-05 03:09 | 22.55468 | 118.48790 | 41036 ft | 531 kts | 56° |
| 2026-05-05 03:09 | 22.59327 | 118.55599 | 41040 ft | 531 kts | 55° |
| 2026-05-05 03:10 | 22.63219 | 118.62418 | 41035 ft | 532 kts | 55° |
| 2026-05-05 03:10 | 22.67086 | 118.69211 | 41038 ft | 532 kts | 56° |
| 2026-05-05 03:11 | 22.70960 | 118.76026 | 41036 ft | 532 kts | 56° |
| 2026-05-05 03:11 | 22.74858 | 118.82894 | 41036 ft | 533 kts | 56° |
| 2026-05-05 03:12 | 22.78733 | 118.89732 | 41037 ft | 533 kts | 56° |
| 2026-05-05 03:12 | 22.82613 | 118.96589 | 41035 ft | 533 kts | 56° |
| 2026-05-05 03:13 | 22.86479 | 119.03427 | 41031 ft | 533 kts | 56° |
| 2026-05-05 03:13 | 22.90346 | 119.10280 | 41037 ft | 534 kts | 56° |
| 2026-05-05 03:14 | 22.94213 | 119.17140 | 41035 ft | 534 kts | 56° |
| 2026-05-05 03:14 | 22.98085 | 119.24017 | 41032 ft | 534 kts | 56° |
| 2026-05-05 03:15 | 23.01966 | 119.30921 | 41033 ft | 535 kts | 56° |
| 2026-05-05 03:15 | 23.05831 | 119.37806 | 41035 ft | 535 kts | 56° |
| 2026-05-05 03:16 | 23.09724 | 119.44750 | 41033 ft | 536 kts | 56° |
| 2026-05-05 03:16 | 23.13600 | 119.51671 | 41032 ft | 536 kts | 56° |
| 2026-05-05 03:17 | 23.17875 | 119.58199 | 41033 ft | 529 kts | 41° |
| 2026-05-05 03:17 | 23.20656 | 119.60811 | 41031 ft | 521 kts | 30° |
| 2026-05-05 03:17 | 23.23688 | 119.62881 | 41037 ft | 517 kts | 25° |
| 2026-05-05 03:18 | 23.29938 | 119.66791 | 41039 ft | 517 kts | 24° |
| 2026-05-05 03:18 | 23.36130 | 119.70676 | 41052 ft | 518 kts | 24° |
| 2026-05-05 03:19 | 23.45509 | 119.76588 | 41058 ft | 518 kts | 24° |
| 2026-05-05 03:19 | 23.48642 | 119.78569 | 40743 ft | 515 kts | 24° |
| 2026-05-05 03:19 | 23.51694 | 119.80611 | 39973 ft | 519 kts | 27° |
| 2026-05-05 03:20 | 23.54730 | 119.82726 | 39176 ft | 523 kts | 27° |
| 2026-05-05 03:20 | 23.57800 | 119.84865 | 38327 ft | 526 kts | 26° |
| 2026-05-05 03:20 | 23.60895 | 119.87009 | 37329 ft | 530 kts | 26° |
| 2026-05-05 03:20 | 23.64028 | 119.89175 | 36297 ft | 535 kts | 26° |
| 2026-05-05 03:21 | 23.67206 | 119.91370 | 35350 ft | 539 kts | 26° |
| 2026-05-05 03:21 | 23.70382 | 119.93565 | 34494 ft | 541 kts | 26° |
| 2026-05-05 03:21 | 23.73544 | 119.95750 | 33523 ft | 544 kts | 26° |
| 2026-05-05 03:21 | 23.76748 | 119.97964 | 32534 ft | 546 kts | 26° |
| 2026-05-05 03:22 | 23.79984 | 120.00201 | 31567 ft | 548 kts | 26° |
| 2026-05-05 03:22 | 23.83156 | 120.02397 | 30834 ft | 543 kts | 26° |
| 2026-05-05 03:22 | 23.86356 | 120.04614 | 30111 ft | 540 kts | 26° |
| 2026-05-05 03:22 | 23.89492 | 120.06786 | 29300 ft | 535 kts | 26° |
| 2026-05-05 03:23 | 23.92622 | 120.08953 | 28562 ft | 530 kts | 27° |
| 2026-05-05 03:23 | 23.95714 | 120.11095 | 27850 ft | 524 kts | 27° |
| 2026-05-05 03:23 | 23.98795 | 120.13232 | 27137 ft | 519 kts | 27° |
| 2026-05-05 03:23 | 24.01844 | 120.15347 | 26425 ft | 514 kts | 27° |
| 2026-05-05 03:24 | 24.04844 | 120.17428 | 25734 ft | 510 kts | 28° |
| 2026-05-05 03:24 | 24.07802 | 120.19483 | 25040 ft | 505 kts | 28° |
| 2026-05-05 03:24 | 24.10769 | 120.21544 | 24343 ft | 501 kts | 28° |
| 2026-05-05 03:24 | 24.13730 | 120.23609 | 23617 ft | 498 kts | 29° |
| 2026-05-05 03:25 | 24.16625 | 120.25624 | 22819 ft | 494 kts | 29° |
| 2026-05-05 03:25 | 24.19509 | 120.27632 | 22104 ft | 487 kts | 29° |
| 2026-05-05 03:25 | 24.22352 | 120.29614 | 21401 ft | 481 kts | 29° |
| 2026-05-05 03:25 | 24.25170 | 120.31579 | 20704 ft | 475 kts | 29° |
| 2026-05-05 03:26 | 24.27916 | 120.33495 | 20011 ft | 469 kts | 29° |
| 2026-05-05 03:26 | 24.30643 | 120.35397 | 19312 ft | 463 kts | 29° |
| 2026-05-05 03:26 | 24.33356 | 120.37291 | 18605 ft | 458 kts | 29° |
| 2026-05-05 03:26 | 24.36017 | 120.39150 | 17847 ft | 453 kts | 29° |
| 2026-05-05 03:27 | 24.38669 | 120.41003 | 17123 ft | 447 kts | 29° |
| 2026-05-05 03:27 | 24.41286 | 120.42833 | 16424 ft | 441 kts | 29° |
| 2026-05-05 03:27 | 24.43828 | 120.44611 | 15742 ft | 434 kts | 29° |
| 2026-05-05 03:27 | 24.46371 | 120.46390 | 15065 ft | 428 kts | 29° |
| 2026-05-05 03:28 | 24.48847 | 120.48123 | 14394 ft | 422 kts | 29° |
| 2026-05-05 03:28 | 24.51318 | 120.49854 | 13704 ft | 416 kts | 30° |
| 2026-05-05 03:28 | 24.53752 | 120.51559 | 12992 ft | 410 kts | 30° |
| 2026-05-05 03:28 | 24.56107 | 120.53210 | 12341 ft | 403 kts | 30° |
| 2026-05-05 03:29 | 24.58451 | 120.54854 | 11687 ft | 397 kts | 30° |
| 2026-05-05 03:29 | 24.60767 | 120.56479 | 11025 ft | 391 kts | 30° |
| 2026-05-05 03:29 | 24.63067 | 120.58093 | 10508 ft | 383 kts | 30° |
| 2026-05-05 03:29 | 24.65237 | 120.59620 | 10357 ft | 364 kts | 30° |
| 2026-05-05 03:30 | 24.67288 | 120.61116 | 10240 ft | 346 kts | 34° |
| 2026-05-05 03:30 | 24.69069 | 120.62741 | 10099 ft | 316 kts | 40° |
| 2026-05-05 03:30 | 24.70661 | 120.64313 | 9981 ft | 302 kts | 40° |
| 2026-05-05 03:30 | 24.72242 | 120.65874 | 9706 ft | 312 kts | 40° |
| 2026-05-05 03:31 | 24.73873 | 120.67480 | 9467 ft | 316 kts | 40° |
| 2026-05-05 03:31 | 24.75506 | 120.69088 | 9118 ft | 314 kts | 40° |
| 2026-05-05 03:31 | 24.76607 | 120.70172 | 8786 ft | 314 kts | 40° |
| 2026-05-05 03:31 | 24.78231 | 120.71770 | 8360 ft | 310 kts | 40° |
| 2026-05-05 03:32 | 24.79825 | 120.73340 | 8006 ft | 306 kts | 40° |
| 2026-05-05 03:32 | 24.81393 | 120.74883 | 7669 ft | 304 kts | 40° |
| 2026-05-05 03:32 | 24.82961 | 120.76427 | 7329 ft | 302 kts | 41° |
| 2026-05-05 03:32 | 24.84522 | 120.77966 | 6998 ft | 299 kts | 41° |
| 2026-05-05 03:33 | 24.86082 | 120.79507 | 6716 ft | 301 kts | 39° |
| 2026-05-05 03:33 | 24.87656 | 120.81062 | 6641 ft | 307 kts | 41° |
| 2026-05-05 03:33 | 24.89232 | 120.82606 | 6866 ft | 298 kts | 41° |
| 2026-05-05 03:33 | 24.90765 | 120.84144 | 6804 ft | 302 kts | 43° |
| 2026-05-05 03:34 | 24.91967 | 120.86065 | 6616 ft | 304 kts | 70° |
| 2026-05-05 03:34 | 24.92389 | 120.88293 | 6571 ft | 297 kts | 85° |
| 2026-05-05 03:34 | 24.92628 | 120.90571 | 6323 ft | 300 kts | 85° |
| 2026-05-05 03:34 | 24.92868 | 120.92851 | 6048 ft | 299 kts | 85° |
| 2026-05-05 03:35 | 24.93121 | 120.95102 | 5772 ft | 299 kts | 85° |
| 2026-05-05 03:35 | 24.93377 | 120.97333 | 5604 ft | 287 kts | 84° |
| 2026-05-05 03:35 | 24.93629 | 120.99471 | 5403 ft | 275 kts | 84° |
| 2026-05-05 03:35 | 24.93868 | 121.01459 | 5120 ft | 253 kts | 84° |
| 2026-05-05 03:36 | 24.94092 | 121.03322 | 4851 ft | 235 kts | 84° |
| 2026-05-05 03:36 | 24.94309 | 121.05047 | 4619 ft | 217 kts | 83° |
| 2026-05-05 03:36 | 24.94625 | 121.06579 | 4427 ft | 198 kts | 74° |
| 2026-05-05 03:36 | 24.95098 | 121.07948 | 4167 ft | 185 kts | 66° |
| 2026-05-05 03:37 | 24.95760 | 121.09139 | 3802 ft | 179 kts | 52° |
| 2026-05-05 03:37 | 24.96550 | 121.10168 | 3553 ft | 170 kts | 49° |
| 2026-05-05 03:37 | 24.97305 | 121.11148 | 3375 ft | 167 kts | 49° |
| 2026-05-05 03:37 | 24.98025 | 121.12064 | 3211 ft | 152 kts | 49° |
| 2026-05-05 03:38 | 24.98685 | 121.12908 | 3038 ft | 139 kts | 50° |
| 2026-05-05 03:38 | 24.99302 | 121.13702 | 2756 ft | 133 kts | 51° |
| 2026-05-05 03:38 | 24.99900 | 121.14470 | 2415 ft | 132 kts | 51° |
| 2026-05-05 03:38 | 25.00498 | 121.15237 | 2149 ft | 131 kts | 51° |
| 2026-05-05 03:39 | 25.01091 | 121.15994 | 1914 ft | 131 kts | 51° |
| 2026-05-05 03:39 | 25.01690 | 121.16756 | 1733 ft | 130 kts | 51° |
| 2026-05-05 03:39 | 25.02256 | 121.17475 | 1536 ft | 121 kts | 51° |
| 2026-05-05 03:39 | 25.02813 | 121.18165 | 1265 ft | 119 kts | 50° |
| 2026-05-05 03:40 | 25.03356 | 121.18857 | 1030 ft | 119 kts | 53° |
| 2026-05-05 03:40 | 25.03887 | 121.19556 | 838 ft | 121 kts | 51° |
| 2026-05-05 03:40 | 25.04441 | 121.20262 | 670 ft | 120 kts | 50° |
| 2026-05-05 03:40 | 25.04983 | 121.20954 | 515 ft | 120 kts | 50° |
| 2026-05-05 03:41 | 25.05527 | 121.21650 | 313 ft | 118 kts | 47° |
| 2026-05-05 03:41 | 25.06060 | 121.22323 | 170 ft | 117 kts | 48° |
| 2026-05-05 03:41 | 25.06588 | 121.22989 | 103 ft | 106 kts | 49° |
| 2026-05-05 03:41 | 25.06932 | 121.23425 | 106 ft | 48 kts | 49° |
| 2026-05-05 03:42 | 25.07144 | 121.23691 | 102 ft | 45 kts | 49° |
| 2026-05-05 03:42 | 25.07353 | 121.23957 | 100 ft | 45 kts | 49° |
| 2026-05-05 03:42 | 25.07566 | 121.24172 | 101 ft | 22 kts | 26° |
| 2026-05-05 03:42 | 25.07709 | 121.24231 | 97 ft | 26 kts | 19° |
| 2026-05-05 03:43 | 25.07868 | 121.24266 | 91 ft | 16 kts | 341° |
| 2026-05-05 03:43 | 25.07950 | 121.24202 | 92 ft | 0 kts | 318° |
| 2026-05-05 03:45 | 25.07970 | 121.24177 | 91 ft | 8 kts | 300° |
| 2026-05-05 03:45 | 25.07956 | 121.24104 | 92 ft | 13 kts | 245° |
| 2026-05-05 03:45 | 25.07995 | 121.24017 | 91 ft | 15 kts | 319° |
| 2026-05-05 03:45 | 25.08012 | 121.24001 | 92 ft | 2 kts | 320° |
| 2026-05-05 03:46 | 25.08026 | 121.23989 | 92 ft | 1 kts | 320° |
| 2026-05-05 03:46 | 25.08027 | 121.23987 | 92 ft | 0 kts | 320° |